sensor_id;sensor_type;location;lat;lon;timestamp;P1;durP1;ratioP1;P2;durP2;ratioP2
25231;SDS011;13176;51.140;6.290;2024-02-14T00:00:07;15.38;;;14.57;;
25231;SDS011;13176;51.140;6.290;2024-02-14T00:02:40;15.30;;;14.40;;
25231;SDS011;13176;51.140;6.290;2024-02-14T00:05:07;16.27;;;15.43;;
25231;SDS011;13176;51.140;6.290;2024-02-14T00:07:34;15.77;;;14.93;;
25231;SDS011;13176;51.140;6.290;2024-02-14T00:10:00;16.00;;;15.20;;
25231;SDS011;13176;51.140;6.290;2024-02-14T00:12:27;15.18;;;14.32;;
25231;SDS011;13176;51.140;6.290;2024-02-14T00:14:53;15.48;;;14.60;;
25231;SDS011;13176;51.140;6.290;2024-02-14T00:17:20;14.90;;;14.10;;
25231;SDS011;13176;51.140;6.290;2024-02-14T00:19:47;17.48;;;16.58;;
25231;SDS011;13176;51.140;6.290;2024-02-14T00:22:17;14.95;;;14.15;;
25231;SDS011;13176;51.140;6.290;2024-02-14T00:24:43;15.55;;;14.55;;
25231;SDS011;13176;51.140;6.290;2024-02-14T00:27:09;15.15;;;14.25;;
25231;SDS011;13176;51.140;6.290;2024-02-14T00:29:36;15.20;;;14.40;;
25231;SDS011;13176;51.140;6.290;2024-02-14T00:32:03;13.52;;;12.93;;
25231;SDS011;13176;51.140;6.290;2024-02-14T00:34:29;14.30;;;13.50;;
25231;SDS011;13176;51.140;6.290;2024-02-14T00:36:56;14.88;;;14.10;;
25231;SDS011;13176;51.140;6.290;2024-02-14T00:39:22;14.25;;;13.40;;
25231;SDS011;13176;51.140;6.290;2024-02-14T00:41:49;17.95;;;16.65;;
25231;SDS011;13176;51.140;6.290;2024-02-14T00:44:16;15.18;;;14.38;;
25231;SDS011;13176;51.140;6.290;2024-02-14T00:46:43;17.20;;;16.33;;
25231;SDS011;13176;51.140;6.290;2024-02-14T00:49:10;16.15;;;15.15;;
25231;SDS011;13176;51.140;6.290;2024-02-14T00:51:37;15.07;;;14.27;;
25231;SDS011;13176;51.140;6.290;2024-02-14T00:54:04;17.85;;;16.85;;
25231;SDS011;13176;51.140;6.290;2024-02-14T00:56:31;16.48;;;15.57;;
25231;SDS011;13176;51.140;6.290;2024-02-14T00:58:57;16.05;;;15.05;;
25231;SDS011;13176;51.140;6.290;2024-02-14T01:01:24;16.98;;;16.08;;
25231;SDS011;13176;51.140;6.290;2024-02-14T01:03:50;17.83;;;16.73;;
25231;SDS011;13176;51.140;6.290;2024-02-14T01:06:17;17.88;;;16.98;;
25231;SDS011;13176;51.140;6.290;2024-02-14T01:08:44;18.38;;;17.38;;
25231;SDS011;13176;51.140;6.290;2024-02-14T01:11:11;19.75;;;18.70;;
25231;SDS011;13176;51.140;6.290;2024-02-14T01:13:37;20.13;;;18.83;;
25231;SDS011;13176;51.140;6.290;2024-02-14T01:16:04;20.60;;;19.60;;
25231;SDS011;13176;51.140;6.290;2024-02-14T01:18:31;21.38;;;20.25;;
25231;SDS011;13176;51.140;6.290;2024-02-14T01:20:57;22.35;;;20.88;;
25231;SDS011;13176;51.140;6.290;2024-02-14T01:23:27;21.45;;;20.25;;
25231;SDS011;13176;51.140;6.290;2024-02-14T01:25:54;21.73;;;20.55;;
25231;SDS011;13176;51.140;6.290;2024-02-14T01:28:21;22.35;;;21.05;;
25231;SDS011;13176;51.140;6.290;2024-02-14T01:30:48;20.70;;;19.60;;
25231;SDS011;13176;51.140;6.290;2024-02-14T01:33:14;22.38;;;21.13;;
25231;SDS011;13176;51.140;6.290;2024-02-14T01:35:43;21.80;;;20.70;;
25231;SDS011;13176;51.140;6.290;2024-02-14T01:38:09;23.92;;;22.52;;
25231;SDS011;13176;51.140;6.290;2024-02-14T01:40:41;22.92;;;21.65;;
25231;SDS011;13176;51.140;6.290;2024-02-14T01:43:09;23.08;;;21.77;;
25231;SDS011;13176;51.140;6.290;2024-02-14T01:45:37;23.45;;;22.02;;
25231;SDS011;13176;51.140;6.290;2024-02-14T01:48:05;23.73;;;22.52;;
25231;SDS011;13176;51.140;6.290;2024-02-14T01:50:33;23.02;;;21.83;;
25231;SDS011;13176;51.140;6.290;2024-02-14T01:53:01;23.55;;;22.23;;
25231;SDS011;13176;51.140;6.290;2024-02-14T01:55:28;22.45;;;21.25;;
25231;SDS011;13176;51.140;6.290;2024-02-14T01:57:55;23.20;;;21.85;;
25231;SDS011;13176;51.140;6.290;2024-02-14T02:00:22;23.63;;;22.23;;
25231;SDS011;13176;51.140;6.290;2024-02-14T02:02:48;21.85;;;20.70;;
25231;SDS011;13176;51.140;6.290;2024-02-14T02:05:15;22.50;;;21.33;;
25231;SDS011;13176;51.140;6.290;2024-02-14T02:07:43;23.58;;;22.30;;
25231;SDS011;13176;51.140;6.290;2024-02-14T02:10:10;21.45;;;20.25;;
25231;SDS011;13176;51.140;6.290;2024-02-14T02:12:37;21.17;;;20.08;;
25231;SDS011;13176;51.140;6.290;2024-02-14T02:15:08;22.10;;;20.95;;
25231;SDS011;13176;51.140;6.290;2024-02-14T02:17:39;21.20;;;19.80;;
25231;SDS011;13176;51.140;6.290;2024-02-14T02:20:06;22.63;;;21.17;;
25231;SDS011;13176;51.140;6.290;2024-02-14T02:22:35;20.73;;;19.63;;
25231;SDS011;13176;51.140;6.290;2024-02-14T02:25:02;19.50;;;18.15;;
25231;SDS011;13176;51.140;6.290;2024-02-14T02:27:33;19.95;;;18.88;;
25231;SDS011;13176;51.140;6.290;2024-02-14T02:30:04;19.90;;;18.88;;
25231;SDS011;13176;51.140;6.290;2024-02-14T02:32:32;19.60;;;18.60;;
25231;SDS011;13176;51.140;6.290;2024-02-14T02:34:59;23.00;;;21.60;;
25231;SDS011;13176;51.140;6.290;2024-02-14T02:37:26;20.65;;;19.55;;
25231;SDS011;13176;51.140;6.290;2024-02-14T02:39:55;21.25;;;20.10;;
25231;SDS011;13176;51.140;6.290;2024-02-14T02:42:22;22.08;;;20.60;;
25231;SDS011;13176;51.140;6.290;2024-02-14T02:44:49;26.42;;;25.02;;
25231;SDS011;13176;51.140;6.290;2024-02-14T02:47:17;23.27;;;22.05;;
25231;SDS011;13176;51.140;6.290;2024-02-14T02:49:44;23.38;;;22.05;;
25231;SDS011;13176;51.140;6.290;2024-02-14T02:52:11;24.15;;;22.80;;
25231;SDS011;13176;51.140;6.290;2024-02-14T02:54:37;23.38;;;22.05;;
25231;SDS011;13176;51.140;6.290;2024-02-14T02:57:07;24.52;;;23.23;;
25231;SDS011;13176;51.140;6.290;2024-02-14T02:59:34;25.00;;;23.55;;
25231;SDS011;13176;51.140;6.290;2024-02-14T03:02:02;24.05;;;22.75;;
25231;SDS011;13176;51.140;6.290;2024-02-14T03:04:29;24.80;;;23.38;;
25231;SDS011;13176;51.140;6.290;2024-02-14T03:07:17;24.08;;;22.73;;
25231;SDS011;13176;51.140;6.290;2024-02-14T03:09:43;22.50;;;21.08;;
25231;SDS011;13176;51.140;6.290;2024-02-14T03:12:10;26.08;;;24.65;;
25231;SDS011;13176;51.140;6.290;2024-02-14T03:14:37;23.77;;;22.42;;
25231;SDS011;13176;51.140;6.290;2024-02-14T03:17:03;21.90;;;20.65;;
25231;SDS011;13176;51.140;6.290;2024-02-14T03:19:30;25.70;;;24.27;;
25231;SDS011;13176;51.140;6.290;2024-02-14T03:21:56;26.83;;;25.40;;
25231;SDS011;13176;51.140;6.290;2024-02-14T03:24:23;24.45;;;23.08;;
25231;SDS011;13176;51.140;6.290;2024-02-14T03:26:52;25.58;;;24.02;;
25231;SDS011;13176;51.140;6.290;2024-02-14T03:29:20;25.02;;;23.63;;
25231;SDS011;13176;51.140;6.290;2024-02-14T03:31:47;23.50;;;22.05;;
25231;SDS011;13176;51.140;6.290;2024-02-14T03:34:14;28.15;;;26.58;;
25231;SDS011;13176;51.140;6.290;2024-02-14T03:36:41;24.27;;;22.75;;
25231;SDS011;13176;51.140;6.290;2024-02-14T03:39:08;23.83;;;22.40;;
25231;SDS011;13176;51.140;6.290;2024-02-14T03:41:35;24.92;;;23.50;;
25231;SDS011;13176;51.140;6.290;2024-02-14T03:44:03;23.95;;;22.50;;
25231;SDS011;13176;51.140;6.290;2024-02-14T03:46:30;25.38;;;23.77;;
25231;SDS011;13176;51.140;6.290;2024-02-14T03:48:56;25.02;;;23.52;;
25231;SDS011;13176;51.140;6.290;2024-02-14T03:51:23;26.25;;;24.80;;
25231;SDS011;13176;51.140;6.290;2024-02-14T03:53:50;26.17;;;24.38;;
25231;SDS011;13176;51.140;6.290;2024-02-14T03:56:16;25.52;;;24.20;;
25231;SDS011;13176;51.140;6.290;2024-02-14T03:58:43;24.60;;;23.25;;
25231;SDS011;13176;51.140;6.290;2024-02-14T04:01:09;25.25;;;23.83;;
25231;SDS011;13176;51.140;6.290;2024-02-14T04:03:36;26.48;;;25.08;;
25231;SDS011;13176;51.140;6.290;2024-02-14T04:06:03;27.48;;;25.98;;
25231;SDS011;13176;51.140;6.290;2024-02-14T04:08:29;25.85;;;24.33;;
25231;SDS011;13176;51.140;6.290;2024-02-14T04:10:56;26.05;;;24.65;;
25231;SDS011;13176;51.140;6.290;2024-02-14T04:13:23;24.15;;;22.83;;
25231;SDS011;13176;51.140;6.290;2024-02-14T04:15:49;23.50;;;22.25;;
25231;SDS011;13176;51.140;6.290;2024-02-14T04:18:16;25.00;;;23.65;;
25231;SDS011;13176;51.140;6.290;2024-02-14T04:20:44;26.70;;;24.92;;
25231;SDS011;13176;51.140;6.290;2024-02-14T04:23:11;27.38;;;25.95;;
25231;SDS011;13176;51.140;6.290;2024-02-14T04:25:37;25.27;;;23.92;;
25231;SDS011;13176;51.140;6.290;2024-02-14T04:28:04;24.50;;;23.17;;
25231;SDS011;13176;51.140;6.290;2024-02-14T04:30:30;23.35;;;22.02;;
25231;SDS011;13176;51.140;6.290;2024-02-14T04:32:57;24.45;;;23.05;;
25231;SDS011;13176;51.140;6.290;2024-02-14T04:35:24;26.27;;;24.85;;
25231;SDS011;13176;51.140;6.290;2024-02-14T04:37:50;27.27;;;25.67;;
25231;SDS011;13176;51.140;6.290;2024-02-14T04:40:18;26.08;;;24.63;;
25231;SDS011;13176;51.140;6.290;2024-02-14T04:42:46;28.20;;;26.48;;
25231;SDS011;13176;51.140;6.290;2024-02-14T04:45:12;26.38;;;24.88;;
25231;SDS011;13176;51.140;6.290;2024-02-14T04:47:39;33.78;;;31.88;;
25231;SDS011;13176;51.140;6.290;2024-02-14T04:50:06;37.45;;;35.20;;
25231;SDS011;13176;51.140;6.290;2024-02-14T04:52:33;32.58;;;30.45;;
25231;SDS011;13176;51.140;6.290;2024-02-14T04:54:59;33.00;;;31.00;;
25231;SDS011;13176;51.140;6.290;2024-02-14T04:57:29;32.15;;;29.85;;
25231;SDS011;13176;51.140;6.290;2024-02-14T04:59:55;30.13;;;28.40;;
25231;SDS011;13176;51.140;6.290;2024-02-14T05:02:22;38.03;;;35.85;;
25231;SDS011;13176;51.140;6.290;2024-02-14T05:04:48;34.00;;;32.13;;
25231;SDS011;13176;51.140;6.290;2024-02-14T05:07:15;33.25;;;31.25;;
25231;SDS011;13176;51.140;6.290;2024-02-14T05:09:42;37.47;;;35.00;;
25231;SDS011;13176;51.140;6.290;2024-02-14T05:12:10;35.95;;;33.83;;
25231;SDS011;13176;51.140;6.290;2024-02-14T05:14:39;33.05;;;31.15;;
25231;SDS011;13176;51.140;6.290;2024-02-14T05:17:07;30.90;;;29.15;;
25231;SDS011;13176;51.140;6.290;2024-02-14T05:19:37;34.75;;;32.65;;
25231;SDS011;13176;51.140;6.290;2024-02-14T05:22:03;48.70;;;45.83;;
25231;SDS011;13176;51.140;6.290;2024-02-14T05:24:30;31.60;;;29.88;;
25231;SDS011;13176;51.140;6.290;2024-02-14T05:26:57;38.22;;;36.10;;
25231;SDS011;13176;51.140;6.290;2024-02-14T05:29:24;31.95;;;30.02;;
25231;SDS011;13176;51.140;6.290;2024-02-14T05:31:53;32.92;;;30.92;;
25231;SDS011;13176;51.140;6.290;2024-02-14T05:34:21;38.80;;;36.65;;
25231;SDS011;13176;51.140;6.290;2024-02-14T05:36:48;37.65;;;35.65;;
25231;SDS011;13176;51.140;6.290;2024-02-14T05:39:15;35.92;;;33.88;;
25231;SDS011;13176;51.140;6.290;2024-02-14T05:41:42;37.25;;;35.20;;
25231;SDS011;13176;51.140;6.290;2024-02-14T05:44:09;37.03;;;34.92;;
25231;SDS011;13176;51.140;6.290;2024-02-14T05:46:36;40.30;;;38.15;;
25231;SDS011;13176;51.140;6.290;2024-02-14T05:49:06;35.03;;;33.10;;
25231;SDS011;13176;51.140;6.290;2024-02-14T05:51:35;33.95;;;31.92;;
25231;SDS011;13176;51.140;6.290;2024-02-14T05:54:02;36.38;;;34.25;;
25231;SDS011;13176;51.140;6.290;2024-02-14T05:56:30;33.40;;;31.35;;
25231;SDS011;13176;51.140;6.290;2024-02-14T05:58:57;33.17;;;31.13;;
25231;SDS011;13176;51.140;6.290;2024-02-14T06:01:24;32.70;;;30.77;;
25231;SDS011;13176;51.140;6.290;2024-02-14T06:03:52;30.75;;;28.88;;
25231;SDS011;13176;51.140;6.290;2024-02-14T06:06:18;34.38;;;32.40;;
25231;SDS011;13176;51.140;6.290;2024-02-14T06:08:45;33.38;;;31.42;;
25231;SDS011;13176;51.140;6.290;2024-02-14T06:11:12;33.70;;;31.88;;
25231;SDS011;13176;51.140;6.290;2024-02-14T06:13:42;35.47;;;33.28;;
25231;SDS011;13176;51.140;6.290;2024-02-14T06:16:10;38.95;;;36.78;;
25231;SDS011;13176;51.140;6.290;2024-02-14T06:18:37;36.30;;;34.28;;
25231;SDS011;13176;51.140;6.290;2024-02-14T06:21:06;36.72;;;34.53;;
25231;SDS011;13176;51.140;6.290;2024-02-14T06:23:32;38.08;;;35.97;;
25231;SDS011;13176;51.140;6.290;2024-02-14T06:26:00;38.45;;;36.13;;
25231;SDS011;13176;51.140;6.290;2024-02-14T06:28:26;35.85;;;33.72;;
25231;SDS011;13176;51.140;6.290;2024-02-14T06:30:53;42.15;;;39.65;;
25231;SDS011;13176;51.140;6.290;2024-02-14T06:33:21;38.65;;;36.47;;
25231;SDS011;13176;51.140;6.290;2024-02-14T06:35:50;37.38;;;35.15;;
25231;SDS011;13176;51.140;6.290;2024-02-14T06:38:17;35.80;;;33.60;;
25231;SDS011;13176;51.140;6.290;2024-02-14T06:40:43;35.00;;;32.97;;
25231;SDS011;13176;51.140;6.290;2024-02-14T06:43:12;32.20;;;30.10;;
25231;SDS011;13176;51.140;6.290;2024-02-14T06:45:39;32.47;;;30.40;;
25231;SDS011;13176;51.140;6.290;2024-02-14T06:48:05;30.67;;;28.90;;
25231;SDS011;13176;51.140;6.290;2024-02-14T06:50:34;31.13;;;29.33;;
25231;SDS011;13176;51.140;6.290;2024-02-14T06:53:01;31.77;;;29.88;;
25231;SDS011;13176;51.140;6.290;2024-02-14T06:55:27;31.05;;;28.98;;
25231;SDS011;13176;51.140;6.290;2024-02-14T06:57:55;28.65;;;26.95;;
25231;SDS011;13176;51.140;6.290;2024-02-14T07:00:22;36.70;;;34.72;;
25231;SDS011;13176;51.140;6.290;2024-02-14T07:02:49;31.20;;;29.50;;
25231;SDS011;13176;51.140;6.290;2024-02-14T07:05:16;28.92;;;27.30;;
25231;SDS011;13176;51.140;6.290;2024-02-14T07:07:42;32.30;;;30.35;;
25231;SDS011;13176;51.140;6.290;2024-02-14T07:10:09;31.63;;;29.88;;
25231;SDS011;13176;51.140;6.290;2024-02-14T07:12:36;32.25;;;30.38;;
25231;SDS011;13176;51.140;6.290;2024-02-14T07:15:03;31.77;;;29.88;;
25231;SDS011;13176;51.140;6.290;2024-02-14T07:17:31;31.98;;;30.23;;
25231;SDS011;13176;51.140;6.290;2024-02-14T07:19:58;31.13;;;29.42;;
25231;SDS011;13176;51.140;6.290;2024-02-14T07:22:26;28.55;;;26.60;;
25231;SDS011;13176;51.140;6.290;2024-02-14T07:24:53;28.02;;;26.33;;
25231;SDS011;13176;51.140;6.290;2024-02-14T07:27:20;27.60;;;25.50;;
25231;SDS011;13176;51.140;6.290;2024-02-14T07:29:47;27.65;;;25.95;;
25231;SDS011;13176;51.140;6.290;2024-02-14T07:32:14;29.73;;;28.02;;
25231;SDS011;13176;51.140;6.290;2024-02-14T07:34:41;27.05;;;25.55;;
25231;SDS011;13176;51.140;6.290;2024-02-14T07:37:07;27.40;;;25.95;;
25231;SDS011;13176;51.140;6.290;2024-02-14T07:39:34;27.90;;;26.30;;
25231;SDS011;13176;51.140;6.290;2024-02-14T07:42:02;26.50;;;25.08;;
25231;SDS011;13176;51.140;6.290;2024-02-14T07:44:31;25.50;;;23.88;;
25231;SDS011;13176;51.140;6.290;2024-02-14T07:46:59;27.08;;;25.48;;
25231;SDS011;13176;51.140;6.290;2024-02-14T07:49:29;24.92;;;23.58;;
25231;SDS011;13176;51.140;6.290;2024-02-14T07:51:56;25.13;;;23.63;;
25231;SDS011;13176;51.140;6.290;2024-02-14T07:54:22;26.80;;;25.30;;
25231;SDS011;13176;51.140;6.290;2024-02-14T07:56:49;24.75;;;23.35;;
25231;SDS011;13176;51.140;6.290;2024-02-14T07:59:15;24.95;;;23.33;;
25231;SDS011;13176;51.140;6.290;2024-02-14T08:01:42;24.73;;;23.33;;
25231;SDS011;13176;51.140;6.290;2024-02-14T08:04:09;24.10;;;22.80;;
25231;SDS011;13176;51.140;6.290;2024-02-14T08:06:37;23.08;;;21.77;;
25231;SDS011;13176;51.140;6.290;2024-02-14T08:09:03;24.73;;;23.33;;
25231;SDS011;13176;51.140;6.290;2024-02-14T08:11:36;27.35;;;25.85;;
25231;SDS011;13176;51.140;6.290;2024-02-14T08:14:02;28.52;;;26.95;;
25231;SDS011;13176;51.140;6.290;2024-02-14T08:16:43;32.33;;;30.52;;
25231;SDS011;13176;51.140;6.290;2024-02-14T08:19:10;30.95;;;29.27;;
25231;SDS011;13176;51.140;6.290;2024-02-14T08:21:37;28.60;;;26.92;;
25231;SDS011;13176;51.140;6.290;2024-02-14T08:24:04;29.58;;;28.02;;
25231;SDS011;13176;51.140;6.290;2024-02-14T08:26:31;29.90;;;28.23;;
25231;SDS011;13176;51.140;6.290;2024-02-14T08:28:58;28.95;;;27.05;;
25231;SDS011;13176;51.140;6.290;2024-02-14T08:31:24;29.75;;;28.17;;
25231;SDS011;13176;51.140;6.290;2024-02-14T08:33:50;27.15;;;25.65;;
25231;SDS011;13176;51.140;6.290;2024-02-14T08:36:17;26.08;;;24.58;;
25231;SDS011;13176;51.140;6.290;2024-02-14T08:38:46;27.38;;;25.80;;
25231;SDS011;13176;51.140;6.290;2024-02-14T08:41:13;26.33;;;24.83;;
25231;SDS011;13176;51.140;6.290;2024-02-14T08:43:40;26.95;;;25.15;;
25231;SDS011;13176;51.140;6.290;2024-02-14T08:46:10;24.60;;;23.20;;
25231;SDS011;13176;51.140;6.290;2024-02-14T08:48:37;29.08;;;27.20;;
25231;SDS011;13176;51.140;6.290;2024-02-14T08:51:12;32.13;;;30.35;;
25231;SDS011;13176;51.140;6.290;2024-02-14T08:53:39;33.15;;;31.25;;
25231;SDS011;13176;51.140;6.290;2024-02-14T08:56:08;32.67;;;30.60;;
25231;SDS011;13176;51.140;6.290;2024-02-14T08:58:35;32.25;;;30.50;;
25231;SDS011;13176;51.140;6.290;2024-02-14T09:01:01;32.22;;;30.33;;
25231;SDS011;13176;51.140;6.290;2024-02-14T09:03:39;27.63;;;25.90;;
25231;SDS011;13176;51.140;6.290;2024-02-14T09:06:09;30.05;;;28.05;;
25231;SDS011;13176;51.140;6.290;2024-02-14T09:08:35;29.52;;;27.75;;
25231;SDS011;13176;51.140;6.290;2024-02-14T09:11:02;29.13;;;27.40;;
25231;SDS011;13176;51.140;6.290;2024-02-14T09:13:29;28.85;;;27.05;;
25231;SDS011;13176;51.140;6.290;2024-02-14T09:15:55;29.70;;;27.63;;
25231;SDS011;13176;51.140;6.290;2024-02-14T09:18:22;29.08;;;27.15;;
25231;SDS011;13176;51.140;6.290;2024-02-14T09:20:50;26.65;;;25.13;;
25231;SDS011;13176;51.140;6.290;2024-02-14T09:23:17;24.98;;;23.60;;
25231;SDS011;13176;51.140;6.290;2024-02-14T09:25:46;25.85;;;24.17;;
25231;SDS011;13176;51.140;6.290;2024-02-14T09:28:13;23.52;;;22.13;;
25231;SDS011;13176;51.140;6.290;2024-02-14T09:30:40;23.45;;;22.15;;
25231;SDS011;13176;51.140;6.290;2024-02-14T09:33:07;23.40;;;21.63;;
25231;SDS011;13176;51.140;6.290;2024-02-14T09:35:33;22.42;;;21.13;;
25231;SDS011;13176;51.140;6.290;2024-02-14T09:38:01;22.52;;;21.15;;
25231;SDS011;13176;51.140;6.290;2024-02-14T09:40:29;24.38;;;22.88;;
25231;SDS011;13176;51.140;6.290;2024-02-14T09:42:56;25.38;;;23.88;;
25231;SDS011;13176;51.140;6.290;2024-02-14T09:45:27;26.23;;;24.73;;
25231;SDS011;13176;51.140;6.290;2024-02-14T09:47:56;22.73;;;21.42;;
25231;SDS011;13176;51.140;6.290;2024-02-14T09:50:23;21.85;;;20.58;;
25231;SDS011;13176;51.140;6.290;2024-02-14T09:52:50;23.05;;;21.73;;
25231;SDS011;13176;51.140;6.290;2024-02-14T09:55:17;22.30;;;20.88;;
25231;SDS011;13176;51.140;6.290;2024-02-14T09:57:44;24.38;;;22.67;;
25231;SDS011;13176;51.140;6.290;2024-02-14T10:00:13;24.30;;;22.70;;
25231;SDS011;13176;51.140;6.290;2024-02-14T10:02:42;25.05;;;23.23;;
25231;SDS011;13176;51.140;6.290;2024-02-14T10:05:09;22.90;;;21.63;;
25231;SDS011;13176;51.140;6.290;2024-02-14T10:07:42;24.95;;;23.55;;
25231;SDS011;13176;51.140;6.290;2024-02-14T10:10:10;22.05;;;20.52;;
25231;SDS011;13176;51.140;6.290;2024-02-14T10:12:37;23.08;;;21.83;;
25231;SDS011;13176;51.140;6.290;2024-02-14T10:15:04;21.95;;;20.65;;
25231;SDS011;13176;51.140;6.290;2024-02-14T10:17:35;27.10;;;25.42;;
25231;SDS011;13176;51.140;6.290;2024-02-14T10:20:02;28.08;;;26.25;;
25231;SDS011;13176;51.140;6.290;2024-02-14T10:22:33;25.13;;;23.48;;
25231;SDS011;13176;51.140;6.290;2024-02-14T10:25:04;26.70;;;25.08;;
25231;SDS011;13176;51.140;6.290;2024-02-14T10:27:38;23.20;;;21.80;;
25231;SDS011;13176;51.140;6.290;2024-02-14T10:30:06;23.75;;;22.40;;
25231;SDS011;13176;51.140;6.290;2024-02-14T10:32:37;23.73;;;22.25;;
25231;SDS011;13176;51.140;6.290;2024-02-14T10:35:05;23.63;;;22.23;;
25231;SDS011;13176;51.140;6.290;2024-02-14T10:37:37;22.67;;;21.38;;
25231;SDS011;13176;51.140;6.290;2024-02-14T10:40:04;22.42;;;21.15;;
25231;SDS011;13176;51.140;6.290;2024-02-14T10:42:32;23.48;;;22.00;;
25231;SDS011;13176;51.140;6.290;2024-02-14T10:44:59;23.50;;;22.00;;
25231;SDS011;13176;51.140;6.290;2024-02-14T10:47:30;23.10;;;21.80;;
25231;SDS011;13176;51.140;6.290;2024-02-14T10:50:00;22.25;;;21.05;;
25231;SDS011;13176;51.140;6.290;2024-02-14T10:52:30;24.73;;;23.42;;
25231;SDS011;13176;51.140;6.290;2024-02-14T10:55:02;22.40;;;21.27;;
25231;SDS011;13176;51.140;6.290;2024-02-14T10:57:30;24.30;;;22.98;;
25231;SDS011;13176;51.140;6.290;2024-02-14T11:00:03;24.30;;;23.08;;
25231;SDS011;13176;51.140;6.290;2024-02-14T11:02:33;26.33;;;24.83;;
25231;SDS011;13176;51.140;6.290;2024-02-14T11:05:01;25.67;;;24.27;;
25231;SDS011;13176;51.140;6.290;2024-02-14T11:07:28;20.67;;;19.63;;
25231;SDS011;13176;51.140;6.290;2024-02-14T11:12:35;20.95;;;19.75;;
25231;SDS011;13176;51.140;6.290;2024-02-14T11:15:10;19.30;;;18.27;;
25231;SDS011;13176;51.140;6.290;2024-02-14T11:17:51;18.15;;;17.23;;
25231;SDS011;13176;51.140;6.290;2024-02-14T11:20:31;20.65;;;19.35;;
25231;SDS011;13176;51.140;6.290;2024-02-14T11:23:03;20.58;;;19.52;;
25231;SDS011;13176;51.140;6.290;2024-02-14T11:25:33;20.58;;;19.48;;
25231;SDS011;13176;51.140;6.290;2024-02-14T11:28:01;21.48;;;20.20;;
25231;SDS011;13176;51.140;6.290;2024-02-14T11:30:39;19.48;;;18.50;;
25231;SDS011;13176;51.140;6.290;2024-02-14T11:33:13;24.92;;;23.50;;
25231;SDS011;13176;51.140;6.290;2024-02-14T11:35:41;26.15;;;24.65;;
25231;SDS011;13176;51.140;6.290;2024-02-14T11:38:08;26.60;;;25.23;;
25231;SDS011;13176;51.140;6.290;2024-02-14T11:40:36;23.67;;;22.42;;
25231;SDS011;13176;51.140;6.290;2024-02-14T11:43:10;26.15;;;24.65;;
25231;SDS011;13176;51.140;6.290;2024-02-14T11:45:38;46.08;;;43.22;;
25231;SDS011;13176;51.140;6.290;2024-02-14T11:48:08;31.95;;;30.20;;
25231;SDS011;13176;51.140;6.290;2024-02-14T11:50:36;32.83;;;31.00;;
25231;SDS011;13176;51.140;6.290;2024-02-14T11:53:05;39.50;;;37.20;;
25231;SDS011;13176;51.140;6.290;2024-02-14T11:55:35;32.63;;;30.73;;
25231;SDS011;13176;51.140;6.290;2024-02-14T11:58:09;33.78;;;31.98;;
25231;SDS011;13176;51.140;6.290;2024-02-14T12:00:40;28.15;;;26.63;;
25231;SDS011;13176;51.140;6.290;2024-02-14T12:03:18;28.02;;;26.48;;
25231;SDS011;13176;51.140;6.290;2024-02-14T12:05:47;33.00;;;31.10;;
25231;SDS011;13176;51.140;6.290;2024-02-14T12:08:17;33.40;;;31.70;;
25231;SDS011;13176;51.140;6.290;2024-02-14T12:10:47;33.65;;;31.83;;
25231;SDS011;13176;51.140;6.290;2024-02-14T12:13:17;33.22;;;31.42;;
25231;SDS011;13176;51.140;6.290;2024-02-14T12:15:46;32.25;;;30.65;;
25231;SDS011;13176;51.140;6.290;2024-02-14T12:18:13;32.83;;;31.02;;
25231;SDS011;13176;51.140;6.290;2024-02-14T12:20:42;31.70;;;30.05;;
25231;SDS011;13176;51.140;6.290;2024-02-14T12:23:16;32.90;;;31.25;;
25231;SDS011;13176;51.140;6.290;2024-02-14T12:25:47;34.08;;;32.33;;
25231;SDS011;13176;51.140;6.290;2024-02-14T12:28:17;34.97;;;33.08;;
25231;SDS011;13176;51.140;6.290;2024-02-14T12:30:51;35.75;;;33.85;;
25231;SDS011;13176;51.140;6.290;2024-02-14T12:33:22;33.85;;;32.13;;
25231;SDS011;13176;51.140;6.290;2024-02-14T12:35:53;37.53;;;35.53;;
25231;SDS011;13176;51.140;6.290;2024-02-14T12:38:42;37.30;;;35.20;;
25231;SDS011;13176;51.140;6.290;2024-02-14T12:41:09;37.65;;;35.65;;
25231;SDS011;13176;51.140;6.290;2024-02-14T12:43:36;40.63;;;38.55;;
25231;SDS011;13176;51.140;6.290;2024-02-14T12:46:02;36.78;;;34.90;;
25231;SDS011;13176;51.140;6.290;2024-02-14T12:48:48;36.33;;;34.45;;
25231;SDS011;13176;51.140;6.290;2024-02-14T12:51:15;34.30;;;32.55;;
25231;SDS011;13176;51.140;6.290;2024-02-14T12:53:43;32.85;;;31.17;;
25231;SDS011;13176;51.140;6.290;2024-02-14T12:56:10;30.02;;;28.52;;
25231;SDS011;13176;51.140;6.290;2024-02-14T12:58:36;33.67;;;31.95;;
25231;SDS011;13176;51.140;6.290;2024-02-14T13:01:03;35.10;;;33.30;;
25231;SDS011;13176;51.140;6.290;2024-02-14T13:03:33;33.92;;;32.10;;
25231;SDS011;13176;51.140;6.290;2024-02-14T13:05:59;32.25;;;30.60;;
25231;SDS011;13176;51.140;6.290;2024-02-14T13:08:28;34.40;;;32.58;;
25231;SDS011;13176;51.140;6.290;2024-02-14T13:11:11;35.85;;;33.90;;
25231;SDS011;13176;51.140;6.290;2024-02-14T13:13:37;30.90;;;29.30;;
25231;SDS011;13176;51.140;6.290;2024-02-14T13:16:04;33.28;;;31.58;;
25231;SDS011;13176;51.140;6.290;2024-02-14T13:18:33;149.15;;;135.65;;
25231;SDS011;13176;51.140;6.290;2024-02-14T13:21:01;78.07;;;73.90;;
25231;SDS011;13176;51.140;6.290;2024-02-14T13:23:28;41.88;;;39.67;;
25231;SDS011;13176;51.140;6.290;2024-02-14T13:25:55;36.47;;;34.60;;
25231;SDS011;13176;51.140;6.290;2024-02-14T13:28:22;70.68;;;66.82;;
25231;SDS011;13176;51.140;6.290;2024-02-14T13:30:49;41.45;;;39.25;;
25231;SDS011;13176;51.140;6.290;2024-02-14T13:33:22;56.58;;;53.60;;
25231;SDS011;13176;51.140;6.290;2024-02-14T13:35:49;79.90;;;75.70;;
25231;SDS011;13176;51.140;6.290;2024-02-14T13:38:16;51.42;;;48.75;;
25231;SDS011;13176;51.140;6.290;2024-02-14T13:40:55;65.03;;;61.58;;
25231;SDS011;13176;51.140;6.290;2024-02-14T13:43:21;104.60;;;98.43;;
25231;SDS011;13176;51.140;6.290;2024-02-14T13:45:47;69.20;;;65.50;;
25231;SDS011;13176;51.140;6.290;2024-02-14T13:48:16;65.15;;;61.65;;
25231;SDS011;13176;51.140;6.290;2024-02-14T13:50:43;126.50;;;118.82;;
25231;SDS011;13176;51.140;6.290;2024-02-14T13:53:09;95.82;;;90.53;;
25231;SDS011;13176;51.140;6.290;2024-02-14T13:55:37;106.72;;;100.95;;
25231;SDS011;13176;51.140;6.290;2024-02-14T13:58:03;131.15;;;123.95;;
25231;SDS011;13176;51.140;6.290;2024-02-14T14:00:30;145.13;;;137.23;;
25231;SDS011;13176;51.140;6.290;2024-02-14T14:02:57;171.45;;;162.35;;
25231;SDS011;13176;51.140;6.290;2024-02-14T14:05:24;164.60;;;155.68;;
25231;SDS011;13176;51.140;6.290;2024-02-14T14:07:51;197.65;;;186.52;;
25231;SDS011;13176;51.140;6.290;2024-02-14T14:10:24;175.52;;;166.20;;
25231;SDS011;13176;51.140;6.290;2024-02-14T14:12:55;176.50;;;166.80;;
25231;SDS011;13176;51.140;6.290;2024-02-14T14:15:22;271.65;;;256.17;;
25231;SDS011;13176;51.140;6.290;2024-02-14T14:17:50;285.40;;;268.85;;
25231;SDS011;13176;51.140;6.290;2024-02-14T14:20:17;301.90;;;284.40;;
25231;SDS011;13176;51.140;6.290;2024-02-14T14:22:46;250.43;;;236.15;;
25231;SDS011;13176;51.140;6.290;2024-02-14T14:25:12;330.30;;;309.88;;
25231;SDS011;13176;51.140;6.290;2024-02-14T14:27:39;331.58;;;311.45;;